createdAt,value
2023-05-09T00:01:40.243Z,8.34
2023-05-09T00:04:09.392Z,7.76
2023-05-09T00:06:38.881Z,7.73
2023-05-09T00:09:08.412Z,7.74
2023-05-09T00:11:37.657Z,7.69
2023-05-09T00:14:07.018Z,8.30
2023-05-09T00:16:38.027Z,7.82
2023-05-09T00:19:07.698Z,7.75
2023-05-09T00:21:37.001Z,7.92
2023-05-09T00:24:07.304Z,7.86
2023-05-09T00:26:36.514Z,8.42
2023-05-09T00:29:06.270Z,7.92
2023-05-09T00:31:36.487Z,7.85
2023-05-09T00:34:07.192Z,8.03
2023-05-09T00:36:36.625Z,7.90
2023-05-09T00:39:06.554Z,7.70
2023-05-09T00:41:35.798Z,7.96
2023-05-09T00:44:04.847Z,7.92
2023-05-09T00:46:33.977Z,7.96
2023-05-09T00:49:03.954Z,7.69
2023-05-09T00:51:34.992Z,8.09
2023-05-09T00:54:04.000Z,8.01
2023-05-09T00:56:33.573Z,8.04
2023-05-09T00:59:03.224Z,8.23
2023-05-09T01:01:32.893Z,8.17
2023-05-09T01:04:02.483Z,7.87
2023-05-09T01:06:39.837Z,8.27
2023-05-09T01:09:20.759Z,8.57
2023-05-09T01:11:56.806Z,8.13
2023-05-09T01:14:34.281Z,8.05
2023-05-09T01:17:12.248Z,7.97
2023-05-09T01:19:55.398Z,8.07
2023-05-09T01:22:31.120Z,8.16
2023-05-09T01:25:39.372Z,7.83
2023-05-09T01:28:15.854Z,8.13
2023-05-09T01:30:48.611Z,7.93
2023-05-09T01:33:20.594Z,8.64
2023-05-09T01:35:53.843Z,8.25
2023-05-09T01:38:26.988Z,8.30
2023-05-09T01:40:59.890Z,8.21
2023-05-09T01:43:31.402Z,8.08
2023-05-09T01:46:03.626Z,8.06
2023-05-09T01:48:34.879Z,8.13
2023-05-09T01:51:05.642Z,8.44
2023-05-09T01:53:36.240Z,8.29
2023-05-09T01:56:06.995Z,8.21
2023-05-09T01:58:38.439Z,8.49
2023-05-09T02:01:10.107Z,8.18
2023-05-09T02:03:40.479Z,8.00
2023-05-09T02:06:11.389Z,8.23
2023-05-09T02:08:41.410Z,8.22
2023-05-09T02:11:10.884Z,8.06
2023-05-09T02:13:40.480Z,7.99
2023-05-09T02:16:12.390Z,8.57
2023-05-09T02:18:42.353Z,8.04
2023-05-09T02:21:11.367Z,8.07
2023-05-09T02:23:40.585Z,8.13
2023-05-09T02:26:10.239Z,8.11
2023-05-09T02:28:40.686Z,7.99
2023-05-09T02:31:13.664Z,8.07
2023-05-09T02:33:45.270Z,8.16
2023-05-09T02:36:16.769Z,8.15
2023-05-09T02:38:46.365Z,8.23
2023-05-09T02:41:15.534Z,8.09
2023-05-09T02:43:44.906Z,8.07
2023-05-09T02:46:15.362Z,8.08
2023-05-09T02:48:44.732Z,8.19
2023-05-09T02:51:14.323Z,8.24
2023-05-09T02:53:43.465Z,8.13
2023-05-09T02:56:13.072Z,8.40
2023-05-09T02:58:42.260Z,8.51
2023-05-09T03:01:11.320Z,8.45
2023-05-09T03:03:42.075Z,8.31
2023-05-09T03:06:11.367Z,8.39
2023-05-09T03:08:40.579Z,8.47
2023-05-09T03:11:11.133Z,8.40
2023-05-09T03:13:40.496Z,8.22
2023-05-09T03:16:09.809Z,8.56
2023-05-09T03:18:38.912Z,8.44
2023-05-09T03:21:09.508Z,8.42
2023-05-09T03:23:40.652Z,8.46
2023-05-09T03:26:10.090Z,8.55
2023-05-09T03:28:39.603Z,8.62
2023-05-09T03:31:09.038Z,8.67
2023-05-09T03:33:38.166Z,8.63
2023-05-09T03:36:07.977Z,8.69
2023-05-09T03:38:39.316Z,8.78
2023-05-09T03:41:08.948Z,8.86
2023-05-09T03:43:38.388Z,8.45
2023-05-09T03:46:07.424Z,8.69
2023-05-09T03:48:37.177Z,8.82
2023-05-09T03:51:06.840Z,8.94
2023-05-09T03:53:41.014Z,8.92
2023-05-09T03:56:11.727Z,8.99
2023-05-09T03:58:48.688Z,8.92
2023-05-09T04:01:19.122Z,9.01
2023-05-09T04:03:48.883Z,9.13
2023-05-09T04:06:18.761Z,9.29
2023-05-09T04:08:49.290Z,9.25
2023-05-09T04:11:21.788Z,9.29
2023-05-09T04:13:51.798Z,9.45
2023-05-09T04:16:31.891Z,9.17
2023-05-09T04:19:02.077Z,9.38
2023-05-09T04:21:32.296Z,9.45
2023-05-09T04:24:04.776Z,9.49
2023-05-09T04:26:44.372Z,9.71
2023-05-09T04:29:16.874Z,9.56
2023-05-09T04:31:51.643Z,9.98
2023-05-09T04:34:21.859Z,9.84
2023-05-09T04:36:52.252Z,9.95
2023-05-09T04:39:23.500Z,10.15
2023-05-09T04:42:02.838Z,10.34
2023-05-09T04:44:32.189Z,10.36
2023-05-09T04:47:02.356Z,10.24
2023-05-09T04:49:31.731Z,10.56
2023-05-09T04:52:00.864Z,10.72
2023-05-09T04:54:32.386Z,10.62
2023-05-09T04:57:17.376Z,10.72
2023-05-09T04:59:51.044Z,11.54
2023-05-09T05:02:21.601Z,11.08
2023-05-09T05:04:57.951Z,11.14
2023-05-09T05:07:36.336Z,12.13
2023-05-09T05:10:07.813Z,11.19
2023-05-09T05:12:38.126Z,11.04
2023-05-09T05:15:12.019Z,11.26
2023-05-09T05:17:42.139Z,11.28
2023-05-09T05:20:12.611Z,11.77
2023-05-09T05:22:46.551Z,12.21
2023-05-09T05:25:17.883Z,11.81
2023-05-09T05:27:49.208Z,11.97
2023-05-09T05:30:18.672Z,11.98
2023-05-09T05:32:48.353Z,12.20
2023-05-09T05:35:23.363Z,12.36
2023-05-09T05:37:56.346Z,12.25
2023-05-09T05:40:27.512Z,11.84
2023-05-09T05:42:58.262Z,12.25
2023-05-09T05:45:30.414Z,12.55
2023-05-09T05:48:02.876Z,12.23
2023-05-09T05:50:34.185Z,12.20
2023-05-09T05:53:03.747Z,12.73
2023-05-09T05:55:34.349Z,12.75
2023-05-09T05:58:03.484Z,12.79
2023-05-09T06:00:35.293Z,14.17
2023-05-09T06:03:08.870Z,13.12
2023-05-09T06:05:52.184Z,13.20
2023-05-09T06:08:21.308Z,13.14
2023-05-09T06:10:51.735Z,12.83
2023-05-09T06:13:21.469Z,13.43
2023-05-09T06:16:01.975Z,13.61
2023-05-09T06:18:40.335Z,13.49
2023-05-09T06:21:09.653Z,13.53
2023-05-09T06:23:42.663Z,13.76
2023-05-09T06:26:24.363Z,13.76
2023-05-09T06:28:53.419Z,14.02
2023-05-09T06:31:25.417Z,13.03
2023-05-09T06:33:56.878Z,13.23
2023-05-09T06:36:26.443Z,13.86
2023-05-09T06:38:55.625Z,14.06
2023-05-09T06:41:26.280Z,14.13
2023-05-09T06:43:55.260Z,14.06
2023-05-09T06:46:24.337Z,14.39
2023-05-09T06:48:53.415Z,13.73
2023-05-09T06:51:22.658Z,13.77
2023-05-09T06:53:52.093Z,13.30
2023-05-09T06:56:22.846Z,13.46
2023-05-09T06:58:54.292Z,13.95
2023-05-09T07:01:23.827Z,13.94
2023-05-09T07:03:53.006Z,13.99
2023-05-09T07:06:22.228Z,14.27
2023-05-09T07:08:51.634Z,13.98
2023-05-09T07:11:21.203Z,13.98
2023-05-09T07:13:50.402Z,14.48
2023-05-09T07:16:23.164Z,13.66
2023-05-09T07:19:20.894Z,13.56
2023-05-09T07:21:50.199Z,13.58
2023-05-09T07:24:19.294Z,13.64
2023-05-09T07:26:48.799Z,13.45
2023-05-09T07:29:20.226Z,13.56
2023-05-09T07:31:51.055Z,13.40
2023-05-09T07:34:20.829Z,13.25
2023-05-09T07:36:50.036Z,13.28
2023-05-09T07:39:19.267Z,13.98
2023-05-09T07:41:51.010Z,13.49
2023-05-09T07:44:20.557Z,13.36
2023-05-09T07:46:55.540Z,13.19
2023-05-09T07:49:24.938Z,13.71
2023-05-09T07:51:54.562Z,14.13
2023-05-09T07:54:23.634Z,13.73
2023-05-09T07:56:52.774Z,14.54
2023-05-09T07:59:21.958Z,14.73
2023-05-09T08:01:51.419Z,14.54
2023-05-09T08:04:21.970Z,14.44
2023-05-09T08:06:51.061Z,14.66
2023-05-09T08:09:22.285Z,14.85
2023-05-09T08:11:53.975Z,14.69
2023-05-09T08:14:23.184Z,15.52
2023-05-09T08:16:54.868Z,15.41
2023-05-09T08:19:26.452Z,15.79
2023-05-09T08:21:56.194Z,14.53
2023-05-09T08:24:25.375Z,15.55
2023-05-09T08:26:54.550Z,16.70
2023-05-09T08:29:23.628Z,17.16
2023-05-09T08:31:53.282Z,15.61
2023-05-09T08:34:23.173Z,14.75
2023-05-09T08:36:54.217Z,16.23
2023-05-09T08:39:25.844Z,15.74
2023-05-09T08:41:59.134Z,16.19
2023-05-09T08:44:30.038Z,16.01
2023-05-09T08:47:01.920Z,16.05
2023-05-09T08:49:31.842Z,17.00
2023-05-09T08:52:03.173Z,16.94
2023-05-09T08:54:32.576Z,16.11
2023-05-09T08:57:02.696Z,16.45
2023-05-09T08:59:35.646Z,16.76
2023-05-09T09:02:08.552Z,17.21
2023-05-09T09:04:37.821Z,17.30
2023-05-09T09:07:09.554Z,17.61
2023-05-09T09:09:45.060Z,17.24
2023-05-09T09:12:17.016Z,18.34
2023-05-09T09:14:50.270Z,16.87
2023-05-09T09:17:22.120Z,16.20
2023-05-09T09:19:54.738Z,15.74
2023-05-09T09:22:26.293Z,16.41
2023-05-09T09:24:55.469Z,16.59
2023-05-09T09:27:24.645Z,16.44
2023-05-09T09:29:54.139Z,15.76
2023-05-09T09:32:35.086Z,16.93
2023-05-09T09:35:08.250Z,16.76
2023-05-09T09:37:40.567Z,16.84
2023-05-09T09:40:11.553Z,16.91
2023-05-09T09:42:45.642Z,16.54
2023-05-09T09:45:16.604Z,17.40
2023-05-09T09:47:47.203Z,17.11
2023-05-09T09:50:17.905Z,18.22
2023-05-09T09:52:52.725Z,17.70
2023-05-09T09:55:23.226Z,18.52
2023-05-09T09:57:52.885Z,17.08
2023-05-09T10:00:27.688Z,18.03
2023-05-09T10:02:58.931Z,17.69
2023-05-09T10:05:29.268Z,18.67
2023-05-09T10:08:01.588Z,18.99
2023-05-09T10:10:32.577Z,18.02
2023-05-09T10:13:04.259Z,19.69
2023-05-09T10:15:45.158Z,20.64
2023-05-09T10:18:26.903Z,20.37
2023-05-09T10:21:00.966Z,19.79
2023-05-09T10:23:34.252Z,18.27
2023-05-09T10:26:10.039Z,18.05
2023-05-09T10:28:43.244Z,22.72
2023-05-09T10:31:17.769Z,19.35
2023-05-09T10:33:51.215Z,21.20
2023-05-09T10:36:22.413Z,21.85
2023-05-09T10:38:56.494Z,20.14
2023-05-09T10:41:26.859Z,19.07
2023-05-09T10:44:00.406Z,19.55
2023-05-09T10:46:29.750Z,19.68
2023-05-09T10:49:00.187Z,19.50
2023-05-09T10:51:29.979Z,20.00
2023-05-09T10:54:02.087Z,20.24
2023-05-09T10:56:33.107Z,18.27
2023-05-09T10:59:03.096Z,18.79
2023-05-09T11:01:35.542Z,19.62
2023-05-09T11:04:11.553Z,19.62
2023-05-09T11:06:51.129Z,19.20
2023-05-09T11:09:33.767Z,18.90
2023-05-09T11:12:10.664Z,18.89
2023-05-09T11:14:43.086Z,20.20
2023-05-09T11:17:13.939Z,21.01
2023-05-09T11:20:00.346Z,22.81
2023-05-09T11:22:32.613Z,23.32
2023-05-09T11:25:05.949Z,22.62
2023-05-09T11:27:42.631Z,21.37
2023-05-09T11:30:14.546Z,19.33
2023-05-09T11:32:46.476Z,19.10
2023-05-09T11:35:17.876Z,19.26
2023-05-09T11:37:49.747Z,19.85
2023-05-09T11:40:21.835Z,22.16
2023-05-09T11:42:57.774Z,21.61
2023-05-09T11:45:30.286Z,20.33
2023-05-09T11:48:00.783Z,19.21
2023-05-09T11:50:32.862Z,19.94
2023-05-09T11:53:02.425Z,18.62
2023-05-09T11:55:33.442Z,18.13
2023-05-09T11:58:02.566Z,18.92
2023-05-09T12:00:32.058Z,18.93
2023-05-09T12:03:01.217Z,18.41
2023-05-09T12:05:30.766Z,18.71
2023-05-09T12:08:07.654Z,19.12
2023-05-09T12:10:40.314Z,19.66
2023-05-09T12:13:14.550Z,19.04
2023-05-09T12:15:44.301Z,19.34
2023-05-09T12:18:13.758Z,19.29
2023-05-09T12:20:44.701Z,20.27
2023-05-09T12:23:14.553Z,19.68
2023-05-09T12:25:55.467Z,21.39
2023-05-09T12:28:25.166Z,20.34
2023-05-09T12:30:55.162Z,21.07
2023-05-09T12:33:25.251Z,20.78
2023-05-09T12:36:04.189Z,18.42
2023-05-09T12:38:33.384Z,18.50
2023-05-09T12:41:15.392Z,18.94
2023-05-09T12:44:30.014Z,20.89
2023-05-09T12:47:01.472Z,20.66
2023-05-09T12:49:34.226Z,23.77
2023-05-09T12:52:09.119Z,29.97
2023-05-09T12:54:39.109Z,30.18
2023-05-09T12:57:31.529Z,24.12
2023-05-09T13:00:03.516Z,22.84
2023-05-09T13:02:38.989Z,21.17
2023-05-09T13:05:13.040Z,20.76
2023-05-09T13:07:44.056Z,20.84
2023-05-09T13:10:14.949Z,20.80
2023-05-09T13:12:48.314Z,19.68
2023-05-09T13:15:20.854Z,20.24
2023-05-09T13:17:54.903Z,19.15
2023-05-09T13:20:24.338Z,18.75
2023-05-09T13:22:56.790Z,18.93
2023-05-09T13:25:27.000Z,18.27
2023-05-09T13:27:57.163Z,19.45
2023-05-09T13:30:28.224Z,19.57
2023-05-09T13:32:58.145Z,19.38
2023-05-09T13:35:31.686Z,19.21
2023-05-09T13:38:01.764Z,20.21
2023-05-09T13:40:34.050Z,21.26
2023-05-09T13:43:03.713Z,21.02
2023-05-09T13:45:34.480Z,20.23
2023-05-09T13:48:05.496Z,20.04
2023-05-09T13:50:37.960Z,19.01
2023-05-09T13:53:13.892Z,19.22
2023-05-09T13:55:48.646Z,22.58
2023-05-09T13:58:19.105Z,27.54
2023-05-09T14:00:50.952Z,26.03
2023-05-09T14:03:20.585Z,24.08
2023-05-09T14:05:52.019Z,24.12
2023-05-09T14:08:22.362Z,24.82
2023-05-09T14:10:59.295Z,27.31
2023-05-09T14:13:34.870Z,24.81
2023-05-09T14:16:09.048Z,26.94
2023-05-09T14:18:38.310Z,27.25
2023-05-09T14:21:07.998Z,29.92
2023-05-09T14:23:37.364Z,28.35
2023-05-09T14:26:07.406Z,23.95
2023-05-09T14:28:37.578Z,25.68
2023-05-09T14:31:08.749Z,27.09
2023-05-09T14:33:41.312Z,25.26
2023-05-09T14:36:14.619Z,28.59
2023-05-09T14:38:46.990Z,22.92
2023-05-09T14:41:20.284Z,20.86
2023-05-09T14:43:53.595Z,21.33
2023-05-09T14:46:25.244Z,19.40
2023-05-09T14:48:57.581Z,19.36
2023-05-09T14:51:28.700Z,18.55
2023-05-09T14:53:57.722Z,17.89
2023-05-09T14:56:26.909Z,17.19
2023-05-09T14:58:56.256Z,17.35
2023-05-09T15:01:29.186Z,16.94
2023-05-09T15:03:59.054Z,17.04
2023-05-09T15:06:29.433Z,17.41
2023-05-09T15:09:13.316Z,16.88
2023-05-09T15:11:48.177Z,17.02
2023-05-09T15:14:18.418Z,16.26
2023-05-09T15:16:51.782Z,16.48
2023-05-09T15:19:22.553Z,16.06
2023-05-09T15:21:52.405Z,15.84
2023-05-09T15:24:21.686Z,16.01
2023-05-09T15:26:52.048Z,15.80
2023-05-09T15:29:22.899Z,15.39
2023-05-09T15:31:55.167Z,15.45
2023-05-09T15:34:24.649Z,15.52
2023-05-09T15:37:00.528Z,15.22
2023-05-09T15:39:34.515Z,15.22
2023-05-09T15:42:05.312Z,15.21
2023-05-09T15:44:37.180Z,15.08
2023-05-09T15:47:07.811Z,15.50
2023-05-09T15:49:37.236Z,15.43
2023-05-09T15:52:09.810Z,15.09
2023-05-09T15:54:40.362Z,15.80
2023-05-09T15:57:10.822Z,15.85
2023-05-09T15:59:42.787Z,15.34
2023-05-09T16:02:14.078Z,15.61
2023-05-09T16:04:51.892Z,15.50
2023-05-09T16:07:29.989Z,15.62
2023-05-09T16:10:00.454Z,15.29
2023-05-09T16:12:32.842Z,15.63
2023-05-09T16:15:02.371Z,14.88
2023-05-09T16:17:36.554Z,15.21
2023-05-09T16:20:07.297Z,15.09
2023-05-09T16:22:44.271Z,14.81
2023-05-09T16:25:14.006Z,14.46
2023-05-09T16:27:43.945Z,14.69
2023-05-09T16:30:14.867Z,14.43
2023-05-09T16:32:47.284Z,14.66
2023-05-09T16:35:23.875Z,13.92
2023-05-09T16:37:53.830Z,13.86
2023-05-09T16:40:23.279Z,13.95
2023-05-09T16:42:53.879Z,13.61
2023-05-09T16:45:24.018Z,13.73
2023-05-09T16:47:55.726Z,13.74
2023-05-09T16:50:25.084Z,13.76
2023-05-09T16:52:55.659Z,13.31
2023-05-09T16:55:25.891Z,13.59
2023-05-09T16:57:55.283Z,13.20
2023-05-09T17:00:24.883Z,13.16
2023-05-09T17:02:58.055Z,12.92
2023-05-09T17:05:28.743Z,13.00
2023-05-09T17:07:58.150Z,12.82
2023-05-09T17:10:28.023Z,12.74
2023-05-09T17:12:58.442Z,12.65
2023-05-09T17:15:28.595Z,12.48
2023-05-09T17:17:59.282Z,12.47
2023-05-09T17:20:29.017Z,12.30
2023-05-09T17:22:59.559Z,12.22
2023-05-09T17:25:29.074Z,12.11
2023-05-09T17:27:58.531Z,12.13
2023-05-09T17:30:28.180Z,11.91
2023-05-09T17:32:58.940Z,11.88
2023-05-09T17:35:28.436Z,11.89
2023-05-09T17:37:57.784Z,12.34
2023-05-09T17:40:27.053Z,12.34
2023-05-09T17:42:56.311Z,12.32
2023-05-09T17:45:25.828Z,12.31
2023-05-09T17:47:55.075Z,11.67
2023-05-09T17:50:25.587Z,11.65
2023-05-09T17:52:56.854Z,11.78
2023-05-09T17:55:25.969Z,11.97
2023-05-09T17:57:55.613Z,11.93
2023-05-09T18:00:25.695Z,11.56
2023-05-09T18:02:56.686Z,11.57
2023-05-09T18:05:30.637Z,11.47
2023-05-09T18:08:01.451Z,11.82
2023-05-09T18:10:30.707Z,11.53
2023-05-09T18:12:59.888Z,11.27
2023-05-09T18:15:29.422Z,11.14
2023-05-09T18:18:16.290Z,11.07
2023-05-09T18:20:57.050Z,11.68
2023-05-09T18:23:28.494Z,11.54
2023-05-09T18:25:58.628Z,10.79
2023-05-09T18:28:28.928Z,10.78
2023-05-09T18:31:00.647Z,10.64
2023-05-09T18:33:30.011Z,10.79
2023-05-09T18:36:00.273Z,10.86
2023-05-09T18:38:29.689Z,10.74
2023-05-09T18:40:58.640Z,10.52
2023-05-09T18:43:29.358Z,10.52
2023-05-09T18:45:59.041Z,10.34
2023-05-09T18:48:28.415Z,10.29
2023-05-09T18:50:58.320Z,10.08
2023-05-09T18:53:29.092Z,10.20
2023-05-09T18:55:58.526Z,9.95
2023-05-09T18:58:28.885Z,9.89
2023-05-09T19:01:01.996Z,9.90
2023-05-09T19:03:31.010Z,9.83
2023-05-09T19:06:01.061Z,9.87
2023-05-09T19:08:31.696Z,9.94
2023-05-09T19:11:02.486Z,10.08
2023-05-09T19:13:33.813Z,10.06
2023-05-09T19:16:04.007Z,10.01
2023-05-09T19:18:33.178Z,9.88
2023-05-09T19:21:02.908Z,9.93
2023-05-09T19:23:33.215Z,9.86
2023-05-09T19:26:03.616Z,9.62
2023-05-09T19:28:36.116Z,10.07
2023-05-09T19:31:05.542Z,9.94
2023-05-09T19:33:34.924Z,10.21
2023-05-09T19:36:04.475Z,10.22
2023-05-09T19:38:40.438Z,9.59
2023-05-09T19:41:10.879Z,9.43
2023-05-09T19:43:43.939Z,9.91
2023-05-09T19:46:15.984Z,9.98
2023-05-09T19:48:46.975Z,9.64
2023-05-09T19:51:25.646Z,9.80
2023-05-09T19:53:56.477Z,9.72
2023-05-09T19:56:25.859Z,9.52
2023-05-09T19:58:55.139Z,9.47
2023-05-09T20:01:25.427Z,9.54
2023-05-09T20:03:56.997Z,9.69
2023-05-09T20:06:26.867Z,9.70
2023-05-09T20:08:57.590Z,9.24
2023-05-09T20:11:27.652Z,9.59
2023-05-09T20:13:57.859Z,9.58
2023-05-09T20:16:27.288Z,9.50
2023-05-09T20:18:56.482Z,9.30
2023-05-09T20:21:27.307Z,9.07
2023-05-09T20:23:57.695Z,9.23
2023-05-09T20:26:28.387Z,9.32
2023-05-09T20:29:01.474Z,9.36
2023-05-09T20:31:31.247Z,9.24
2023-05-09T20:34:01.193Z,9.14
2023-05-09T20:36:34.466Z,9.31
2023-05-09T20:39:05.222Z,9.05
2023-05-09T20:41:34.969Z,8.99
2023-05-09T20:44:04.734Z,9.03
2023-05-09T20:46:43.014Z,8.91
2023-05-09T20:49:18.334Z,8.81
2023-05-09T20:51:48.616Z,8.59
2023-05-09T20:54:19.241Z,8.52
2023-05-09T20:56:48.704Z,8.38
2023-05-09T20:59:17.884Z,8.39
2023-05-09T21:01:47.499Z,8.30
2023-05-09T21:04:16.988Z,8.19
2023-05-09T21:06:46.314Z,8.24
2023-05-09T21:09:16.021Z,8.86
2023-05-09T21:11:46.613Z,8.51
2023-05-09T21:14:15.812Z,8.33
2023-05-09T21:16:46.763Z,8.22
2023-05-09T21:19:17.324Z,8.21
2023-05-09T21:21:46.728Z,8.03
2023-05-09T21:24:15.839Z,8.01
2023-05-09T21:26:46.159Z,7.97
2023-05-09T21:29:15.739Z,7.86
2023-05-09T21:31:45.252Z,7.83
2023-05-09T21:34:14.877Z,7.81
2023-05-09T21:36:43.913Z,7.82
2023-05-09T21:39:13.554Z,7.75
2023-05-09T21:41:43.614Z,7.65
2023-05-09T21:44:13.930Z,8.06
2023-05-09T21:46:46.186Z,7.76
2023-05-09T21:49:17.232Z,7.72
2023-05-09T21:51:46.229Z,8.04
2023-05-09T21:54:15.687Z,8.46
2023-05-09T21:56:44.558Z,8.45
2023-05-09T21:59:15.214Z,8.02
2023-05-09T22:01:45.860Z,7.62
2023-05-09T22:04:15.701Z,7.54
2023-05-09T22:06:44.797Z,7.67
2023-05-09T22:09:14.451Z,7.57
2023-05-09T22:11:43.525Z,7.64
2023-05-09T22:14:14.075Z,7.68
2023-05-09T22:16:43.071Z,7.61
2023-05-09T22:19:12.419Z,7.62
2023-05-09T22:21:41.611Z,7.44
2023-05-09T22:24:10.518Z,7.55
2023-05-09T22:26:39.524Z,7.53
2023-05-09T22:29:08.628Z,7.48
2023-05-09T22:31:39.014Z,7.67
2023-05-09T22:34:07.980Z,7.64
2023-05-09T22:36:36.849Z,7.74
2023-05-09T22:39:06.174Z,7.73
2023-05-09T22:41:35.049Z,7.82
2023-05-09T22:44:04.375Z,7.80
2023-05-09T22:46:33.574Z,7.83
2023-05-09T22:49:04.148Z,7.90
2023-05-09T22:51:33.545Z,7.94
2023-05-09T22:54:02.627Z,7.98
2023-05-09T22:56:31.481Z,7.93
2023-05-09T22:59:00.568Z,7.93
2023-05-09T23:01:29.511Z,7.97
2023-05-09T23:03:58.602Z,7.95
2023-05-09T23:06:29.312Z,8.07
2023-05-09T23:08:58.829Z,8.23
2023-05-09T23:11:27.916Z,8.29
2023-05-09T23:13:57.007Z,8.24
2023-05-09T23:16:25.969Z,8.38
2023-05-09T23:18:55.403Z,8.29
2023-05-09T23:21:24.574Z,8.38
2023-05-09T23:23:54.944Z,8.88
2023-05-09T23:26:23.840Z,8.63
2023-05-09T23:28:55.333Z,9.13
2023-05-09T23:31:24.614Z,9.22
2023-05-09T23:33:53.695Z,8.73
2023-05-09T23:36:22.773Z,8.99
2023-05-09T23:38:51.746Z,8.38
2023-05-09T23:41:22.197Z,8.46
2023-05-09T23:43:51.062Z,8.32
2023-05-09T23:46:20.032Z,8.46
2023-05-09T23:48:48.941Z,8.97
2023-05-09T23:51:20.098Z,8.96
2023-05-09T23:53:49.349Z,9.17
2023-05-09T23:56:18.397Z,9.22
2023-05-09T23:58:48.616Z,9.25
